createdAt,value
2018-04-07T00:01:30.248Z,10.80
2018-04-07T00:03:56.955Z,11.70
2018-04-07T00:06:23.845Z,12.30
2018-04-07T00:08:50.580Z,9.63
2018-04-07T00:11:17.295Z,13.60
2018-04-07T00:13:44.026Z,12.60
2018-04-07T00:16:10.726Z,12.70
2018-04-07T00:18:37.450Z,10.40
2018-04-07T00:21:04.210Z,11.63
2018-04-07T00:23:30.937Z,10.80
2018-04-07T00:25:57.660Z,11.23
2018-04-07T00:28:24.568Z,10.97
2018-04-07T00:30:51.302Z,11.33
2018-04-07T00:33:18.029Z,11.80
2018-04-07T00:35:44.761Z,14.20
2018-04-07T00:38:11.478Z,11.83
2018-04-07T00:40:38.201Z,10.67
2018-04-07T00:43:04.972Z,19.97
2018-04-07T00:45:31.696Z,14.00
2018-04-07T00:47:58.422Z,9.43
2018-04-07T00:50:25.125Z,11.50
2018-04-07T00:52:56.819Z,11.83
2018-04-07T00:55:23.528Z,17.90
2018-04-07T00:57:50.398Z,11.17
2018-04-07T01:00:17.113Z,11.37
2018-04-07T01:02:43.816Z,12.43
2018-04-07T01:05:10.517Z,12.27
2018-04-07T01:07:37.238Z,11.23
2018-04-07T01:10:03.962Z,11.93
2018-04-07T01:12:30.715Z,14.40
2018-04-07T01:14:57.434Z,13.13
2018-04-07T01:17:24.142Z,14.10
2018-04-07T01:19:50.865Z,16.20
2018-04-07T01:22:17.563Z,11.80
2018-04-07T01:24:44.295Z,14.90
2018-04-07T01:27:11.002Z,12.50
2018-04-07T01:29:37.705Z,14.40
2018-04-07T01:32:04.422Z,14.40
2018-04-07T01:34:31.148Z,11.63
2018-04-07T01:36:57.861Z,11.37
2018-04-07T01:39:24.640Z,13.13
2018-04-07T01:41:51.373Z,11.57
2018-04-07T01:44:18.088Z,12.73
2018-04-07T01:46:44.905Z,12.63
2018-04-07T01:49:11.624Z,13.53
2018-04-07T01:51:38.330Z,13.30
2018-04-07T01:54:05.051Z,13.13
2018-04-07T01:56:31.757Z,12.07
2018-04-07T01:58:58.457Z,12.43
2018-04-07T02:01:25.177Z,12.43
2018-04-07T02:03:51.880Z,13.67
2018-04-07T02:06:19.027Z,13.40
2018-04-07T02:08:45.758Z,14.20
2018-04-07T02:11:12.479Z,15.30
2018-04-07T02:13:39.182Z,12.97
2018-04-07T02:16:05.910Z,11.33
2018-04-07T02:18:32.651Z,11.70
2018-04-07T02:20:59.361Z,12.67
2018-04-07T02:23:26.084Z,12.70
2018-04-07T02:25:52.812Z,14.10
2018-04-07T02:28:19.525Z,13.87
2018-04-07T02:30:46.256Z,12.60
2018-04-07T02:33:12.986Z,14.70
2018-04-07T02:35:39.715Z,12.30
2018-04-07T02:38:06.444Z,14.33
2018-04-07T02:40:33.172Z,11.53
2018-04-07T02:42:59.870Z,11.80
2018-04-07T02:45:26.596Z,13.37
2018-04-07T02:47:53.357Z,12.20
2018-04-07T02:50:20.099Z,14.23
2018-04-07T02:52:46.892Z,12.57
2018-04-07T02:55:13.597Z,20.70
2018-04-07T02:57:40.316Z,16.00
2018-04-07T03:00:07.047Z,12.60
2018-04-07T03:02:33.752Z,13.00
2018-04-07T03:05:00.462Z,15.10
2018-04-07T03:07:27.178Z,13.50
2018-04-07T03:09:53.910Z,14.73
2018-04-07T03:12:20.621Z,11.17
2018-04-07T03:14:47.355Z,11.40
2018-04-07T03:17:14.053Z,12.30
2018-04-07T03:19:40.777Z,15.97
2018-04-07T03:22:07.468Z,12.03
2018-04-07T03:24:34.190Z,12.37
2018-04-07T03:27:00.896Z,13.37
2018-04-07T03:29:27.626Z,14.23
2018-04-07T03:31:54.349Z,11.93
2018-04-07T03:34:21.049Z,13.90
2018-04-07T03:36:47.777Z,14.47
2018-04-07T03:39:14.494Z,12.40
2018-04-07T03:41:41.236Z,14.47
2018-04-07T03:44:07.942Z,16.50
2018-04-07T03:46:34.661Z,12.73
2018-04-07T03:49:01.414Z,14.20
2018-04-07T03:51:28.129Z,15.73
2018-04-07T03:53:54.851Z,13.37
2018-04-07T03:56:21.567Z,15.20
2018-04-07T03:58:48.318Z,13.03
2018-04-07T04:01:15.020Z,27.83
2018-04-07T04:03:41.752Z,12.40
2018-04-07T04:06:08.478Z,12.93
2018-04-07T04:08:35.188Z,14.30
2018-04-07T04:11:01.911Z,19.03
2018-04-07T04:13:28.723Z,15.50
2018-04-07T04:15:55.467Z,12.70
2018-04-07T04:18:22.178Z,14.97
2018-04-07T04:20:49.979Z,13.80
2018-04-07T04:23:16.706Z,14.70
2018-04-07T04:25:43.416Z,14.60
2018-04-07T04:28:10.166Z,13.80
2018-04-07T04:30:36.880Z,13.40
2018-04-07T04:33:03.679Z,13.33
2018-04-07T04:35:30.391Z,15.90
2018-04-07T04:37:57.093Z,15.60
2018-04-07T04:40:23.837Z,15.73
2018-04-07T04:42:50.543Z,14.50
2018-04-07T04:45:17.278Z,17.23
2018-04-07T04:47:44.021Z,13.37
2018-04-07T04:50:10.742Z,15.43
2018-04-07T04:52:37.471Z,18.13
2018-04-07T04:55:04.203Z,16.30
2018-04-07T04:57:30.909Z,21.03
2018-04-07T04:59:57.619Z,13.37
2018-04-07T05:02:24.359Z,15.57
2018-04-07T05:04:51.106Z,16.20
2018-04-07T05:07:18.824Z,14.13
2018-04-07T05:09:45.525Z,15.27
2018-04-07T05:12:12.293Z,16.40
2018-04-07T05:14:39.018Z,15.83
2018-04-07T05:17:05.758Z,13.57
2018-04-07T05:19:32.527Z,25.30
2018-04-07T05:21:59.262Z,18.80
2018-04-07T05:24:26.101Z,17.17
2018-04-07T05:26:52.838Z,17.27
2018-04-07T05:29:19.608Z,14.23
2018-04-07T05:31:46.318Z,16.30
2018-04-07T05:34:13.075Z,18.63
2018-04-07T05:36:51.270Z,17.10
2018-04-07T05:39:17.979Z,13.63
2018-04-07T05:41:44.711Z,17.57
2018-04-07T05:44:11.432Z,18.43
2018-04-07T05:46:38.155Z,17.20
2018-04-07T05:49:04.883Z,22.13
2018-04-07T05:51:31.594Z,17.13
2018-04-07T05:53:58.326Z,19.47
2018-04-07T05:56:25.051Z,25.97
2018-04-07T05:58:51.789Z,23.40
2018-04-07T06:01:18.509Z,21.10
2018-04-07T06:03:45.228Z,19.57
2018-04-07T06:06:11.967Z,20.10
2018-04-07T06:08:38.688Z,20.23
2018-04-07T06:11:05.423Z,23.10
2018-04-07T06:13:32.146Z,20.47
2018-04-07T06:15:58.864Z,20.33
2018-04-07T06:18:25.641Z,18.77
2018-04-07T06:20:52.458Z,18.43
2018-04-07T06:23:19.274Z,25.30
2018-04-07T06:25:46.004Z,21.03
2018-04-07T06:28:12.733Z,21.30
2018-04-07T06:30:39.463Z,17.53
2018-04-07T06:33:06.263Z,20.90
2018-04-07T06:35:33.024Z,20.50
2018-04-07T06:37:59.763Z,21.37
2018-04-07T06:40:26.521Z,22.40
2018-04-07T06:42:53.322Z,17.93
2018-04-07T06:45:20.097Z,20.77
2018-04-07T06:47:46.802Z,24.00
2018-04-07T06:50:13.540Z,19.93
2018-04-07T06:52:40.274Z,18.40
2018-04-07T06:55:06.992Z,17.80
2018-04-07T06:57:33.759Z,18.10
2018-04-07T07:00:00.489Z,19.47
2018-04-07T07:02:27.189Z,16.30
2018-04-07T07:04:53.947Z,21.27
2018-04-07T07:07:20.690Z,15.93
2018-04-07T07:09:47.418Z,15.80
2018-04-07T07:12:14.142Z,22.40
2018-04-07T07:14:40.851Z,16.67
2018-04-07T07:17:07.577Z,19.60
2018-04-07T07:19:34.309Z,17.33
2018-04-07T07:22:01.321Z,23.80
2018-04-07T07:24:28.370Z,19.90
2018-04-07T07:26:55.136Z,20.53
2018-04-07T07:29:21.918Z,18.63
2018-04-07T07:31:48.771Z,23.63
2018-04-07T07:34:15.555Z,19.50
2018-04-07T07:36:42.377Z,25.43
2018-04-07T07:39:09.408Z,19.60
2018-04-07T07:41:36.154Z,20.80
2018-04-07T07:44:02.888Z,18.57
2018-04-07T07:46:29.682Z,21.10
2018-04-07T07:48:56.388Z,22.47
2018-04-07T07:51:23.237Z,19.00
2018-04-07T07:53:50.206Z,17.87
2018-04-07T07:56:17.071Z,20.40
2018-04-07T07:58:43.914Z,18.87
2018-04-07T08:01:10.653Z,22.53
2018-04-07T08:03:37.388Z,17.60
2018-04-07T08:06:04.117Z,19.37
2018-04-07T08:08:30.833Z,22.83
2018-04-07T08:10:57.573Z,23.20
2018-04-07T08:13:24.286Z,20.73
2018-04-07T08:15:50.989Z,20.03
2018-04-07T08:18:17.745Z,23.30
2018-04-07T08:20:44.547Z,21.17
2018-04-07T08:23:11.267Z,20.27
2018-04-07T08:25:38.000Z,24.37
2018-04-07T08:28:04.757Z,22.67
2018-04-07T08:30:31.502Z,19.70
2018-04-07T08:32:58.215Z,17.00
2018-04-07T08:35:24.944Z,18.20
2018-04-07T08:37:51.667Z,24.10
2018-04-07T08:40:18.394Z,19.90
2018-04-07T08:42:45.133Z,17.53
2018-04-07T08:45:11.841Z,19.03
2018-04-07T08:47:38.584Z,20.63
2018-04-07T08:50:05.338Z,19.33
2018-04-07T08:52:32.048Z,20.37
2018-04-07T08:54:58.796Z,16.27
2018-04-07T08:57:25.547Z,15.23
2018-04-07T08:59:52.273Z,17.20
2018-04-07T09:02:18.980Z,16.93
2018-04-07T09:04:45.740Z,16.90
2018-04-07T09:07:12.475Z,16.90
2018-04-07T09:09:39.254Z,20.93
2018-04-07T09:12:06.000Z,19.13
2018-04-07T09:14:32.745Z,17.33
2018-04-07T09:16:59.486Z,17.80
2018-04-07T09:19:26.322Z,18.23
2018-04-07T09:21:52.998Z,16.33
2018-04-07T09:24:19.739Z,15.20
2018-04-07T09:26:46.473Z,15.07
2018-04-07T09:29:13.197Z,16.43
2018-04-07T09:31:39.933Z,18.20
2018-04-07T09:34:06.661Z,15.43
2018-04-07T09:36:33.391Z,14.07
2018-04-07T09:39:00.112Z,14.20
2018-04-07T09:41:26.833Z,14.87
2018-04-07T09:43:53.617Z,14.20
2018-04-07T09:46:20.351Z,14.73
2018-04-07T09:48:47.079Z,15.47
2018-04-07T09:51:13.801Z,14.63
2018-04-07T09:53:40.528Z,13.83
2018-04-07T09:56:07.274Z,14.57
2018-04-07T09:58:34.057Z,16.53
2018-04-07T10:01:00.838Z,14.20
2018-04-07T10:03:27.568Z,16.27
2018-04-07T10:05:54.288Z,15.67
2018-04-07T10:08:21.029Z,13.83
2018-04-07T10:10:47.737Z,13.73
2018-04-07T10:13:14.524Z,20.30
2018-04-07T10:15:41.304Z,10.93
2018-04-07T10:18:08.044Z,11.30
2018-04-07T10:20:34.835Z,12.70
2018-04-07T10:23:01.541Z,16.30
2018-04-07T10:25:28.330Z,12.83
2018-04-07T10:27:55.068Z,10.77
2018-04-07T10:30:21.762Z,12.77
2018-04-07T10:32:48.490Z,14.20
2018-04-07T10:35:15.210Z,11.60
2018-04-07T10:37:42.007Z,10.00
2018-04-07T10:40:08.737Z,13.37
2018-04-07T10:42:35.495Z,10.10
2018-04-07T10:45:02.214Z,9.77
2018-04-07T10:47:28.947Z,25.23
2018-04-07T10:49:55.695Z,13.63
2018-04-07T10:52:22.404Z,11.17
2018-04-07T10:54:49.133Z,11.30
2018-04-07T10:57:15.869Z,12.37
2018-04-07T10:59:42.650Z,12.60
2018-04-07T11:02:09.386Z,11.43
2018-04-07T11:04:36.110Z,9.20
2018-04-07T11:07:02.828Z,9.90
2018-04-07T11:09:29.554Z,12.00
2018-04-07T11:11:56.289Z,14.47
2018-04-07T11:14:22.996Z,9.53
2018-04-07T11:16:49.697Z,14.03
2018-04-07T11:19:16.431Z,10.03
2018-04-07T11:21:43.136Z,9.20
2018-04-07T11:24:09.866Z,10.57
2018-04-07T11:26:36.607Z,10.80
2018-04-07T11:29:03.328Z,14.03
2018-04-07T11:31:30.055Z,12.13
2018-04-07T11:33:56.785Z,10.90
2018-04-07T11:36:23.528Z,13.80
2018-04-07T11:38:50.272Z,13.30
2018-04-07T11:41:16.978Z,10.23
2018-04-07T11:43:43.695Z,9.40
2018-04-07T11:46:10.446Z,10.77
2018-04-07T11:48:37.183Z,9.67
2018-04-07T11:51:03.951Z,11.50
2018-04-07T11:53:30.654Z,8.40
2018-04-07T11:55:57.387Z,10.60
2018-04-07T11:58:24.120Z,12.20
2018-04-07T12:00:50.866Z,15.10
2018-04-07T12:03:17.603Z,10.87
2018-04-07T12:05:44.311Z,12.57
2018-04-07T12:08:11.084Z,13.93
2018-04-07T12:10:37.811Z,13.50
2018-04-07T12:13:04.564Z,12.20
2018-04-07T12:15:31.298Z,12.20
2018-04-07T12:17:58.022Z,12.10
2018-04-07T12:20:24.831Z,12.63
2018-04-07T12:22:51.537Z,11.53
2018-04-07T12:25:18.274Z,11.53
2018-04-07T12:27:44.990Z,11.80
2018-04-07T12:30:11.718Z,11.43
2018-04-07T12:32:38.426Z,11.03
2018-04-07T12:35:05.144Z,10.33
2018-04-07T12:37:31.879Z,10.37
2018-04-07T12:39:58.613Z,12.57
2018-04-07T12:42:25.360Z,10.93
2018-04-07T12:44:52.073Z,12.43
2018-04-07T12:47:18.822Z,22.57
2018-04-07T12:49:45.521Z,12.63
2018-04-07T12:52:12.266Z,13.23
2018-04-07T12:54:38.975Z,12.67
2018-04-07T12:57:05.700Z,13.87
2018-04-07T12:59:32.480Z,16.17
2018-04-07T13:01:59.216Z,12.53
2018-04-07T13:04:26.011Z,13.97
2018-04-07T13:06:52.746Z,14.63
2018-04-07T13:09:19.458Z,11.80
2018-04-07T13:11:46.218Z,15.40
2018-04-07T13:14:12.932Z,14.33
2018-04-07T13:16:39.719Z,14.03
2018-04-07T13:19:06.443Z,12.87
2018-04-07T13:21:33.187Z,12.93
2018-04-07T13:23:59.909Z,15.00
2018-04-07T13:26:26.618Z,13.20
2018-04-07T13:28:53.346Z,14.77
2018-04-07T13:31:20.086Z,14.70
2018-04-07T13:33:46.846Z,13.80
2018-04-07T13:36:13.658Z,12.13
2018-04-07T13:38:40.392Z,15.50
2018-04-07T13:41:07.142Z,13.33
2018-04-07T13:43:33.842Z,15.67
2018-04-07T13:46:00.572Z,15.37
2018-04-07T13:48:27.287Z,14.37
2018-04-07T13:50:54.027Z,15.20
2018-04-07T13:53:20.844Z,14.53
2018-04-07T13:55:47.583Z,15.77
2018-04-07T13:58:14.324Z,17.50
2018-04-07T14:00:41.096Z,14.43
2018-04-07T14:03:07.827Z,12.80
2018-04-07T14:05:34.555Z,13.53
2018-04-07T14:08:01.273Z,12.23
2018-04-07T14:10:28.030Z,11.70
2018-04-07T14:12:54.775Z,12.27
2018-04-07T14:15:21.490Z,12.63
2018-04-07T14:17:48.193Z,12.97
2018-04-07T14:20:14.946Z,12.23
2018-04-07T14:22:41.715Z,11.97
2018-04-07T14:25:08.493Z,12.37
2018-04-07T14:27:35.227Z,13.07
2018-04-07T14:30:01.942Z,11.93
2018-04-07T14:32:28.697Z,12.73
2018-04-07T14:34:55.424Z,12.03
2018-04-07T14:37:22.152Z,13.50
2018-04-07T14:39:48.915Z,18.93
2018-04-07T14:42:15.656Z,17.10
2018-04-07T14:44:42.387Z,12.20
2018-04-07T14:47:09.095Z,10.37
2018-04-07T14:49:35.885Z,9.70
2018-04-07T14:52:02.603Z,9.50
2018-04-07T14:54:29.294Z,10.47
2018-04-07T14:56:56.033Z,10.50
2018-04-07T14:59:22.736Z,10.80
2018-04-07T15:01:49.452Z,10.10
2018-04-07T15:04:16.151Z,10.97
2018-04-07T15:06:42.856Z,11.70
2018-04-07T15:09:09.609Z,11.07
2018-04-07T15:11:36.356Z,13.53
2018-04-07T15:14:03.086Z,11.07
2018-04-07T15:16:29.796Z,11.80
2018-04-07T15:18:56.515Z,14.07
2018-04-07T15:21:23.269Z,14.60
2018-04-07T15:23:49.999Z,18.60
2018-04-07T15:26:17.616Z,14.50
2018-04-07T15:28:44.358Z,14.83
2018-04-07T15:31:11.196Z,15.07
2018-04-07T15:33:37.938Z,16.57
2018-04-07T15:36:04.675Z,16.90
2018-04-07T15:38:31.452Z,15.97
2018-04-07T15:40:58.200Z,15.87
2018-04-07T15:43:24.916Z,17.97
2018-04-07T15:45:51.643Z,16.27
2018-04-07T15:48:18.444Z,16.37
2018-04-07T15:50:45.196Z,16.33
2018-04-07T15:53:11.938Z,20.47
2018-04-07T15:55:38.674Z,18.30
2018-04-07T15:58:05.426Z,22.80
2018-04-07T16:00:32.151Z,18.60
2018-04-07T16:02:58.889Z,17.73
2018-04-07T16:05:25.694Z,17.60
2018-04-07T16:07:52.438Z,20.07
2018-04-07T16:10:19.205Z,21.67
2018-04-07T16:12:45.978Z,19.67
2018-04-07T16:15:12.714Z,19.27
2018-04-07T16:17:39.480Z,20.33
2018-04-07T16:20:06.238Z,20.57
2018-04-07T16:22:32.990Z,19.53
2018-04-07T16:24:59.738Z,18.87
2018-04-07T16:27:26.495Z,17.40
2018-04-07T16:29:53.264Z,20.00
2018-04-07T16:32:20.066Z,21.80
2018-04-07T16:34:46.842Z,22.00
2018-04-07T16:37:13.615Z,21.53
2018-04-07T16:39:40.395Z,22.77
2018-04-07T16:42:07.139Z,21.20
2018-04-07T16:44:33.979Z,22.03
2018-04-07T16:47:00.840Z,20.77
2018-04-07T16:49:27.606Z,20.67
2018-04-07T16:51:54.360Z,20.23
2018-04-07T16:54:21.115Z,20.23
2018-04-07T16:56:47.902Z,20.87
2018-04-07T16:59:14.653Z,20.97
2018-04-07T17:01:41.386Z,23.43
2018-04-07T17:04:08.152Z,21.40
2018-04-07T17:06:34.878Z,22.83
2018-04-07T17:09:01.636Z,23.53
2018-04-07T17:11:28.992Z,26.20
2018-04-07T17:13:55.719Z,24.27
2018-04-07T17:16:22.462Z,23.57
2018-04-07T17:18:49.203Z,22.03
2018-04-07T17:21:16.030Z,24.40
2018-04-07T17:23:42.825Z,28.00
2018-04-07T17:26:09.570Z,23.80
2018-04-07T17:28:36.356Z,26.87
2018-04-07T17:31:03.109Z,23.20
2018-04-07T17:33:29.870Z,24.30
2018-04-07T17:35:56.607Z,25.00
2018-04-07T17:38:23.336Z,23.47
2018-04-07T17:40:50.079Z,22.40
2018-04-07T17:43:16.885Z,22.33
2018-04-07T17:45:43.626Z,22.50
2018-04-07T17:48:10.340Z,22.43
2018-04-07T17:50:37.475Z,25.87
2018-04-07T17:53:04.289Z,23.80
2018-04-07T17:55:31.054Z,25.93
2018-04-07T17:57:57.872Z,24.33
2018-04-07T18:00:24.583Z,21.50
2018-04-07T18:02:51.321Z,25.23
2018-04-07T18:05:18.035Z,22.77
2018-04-07T18:07:44.760Z,24.40
2018-04-07T18:10:11.511Z,24.20
2018-04-07T18:12:38.280Z,23.33
2018-04-07T18:15:05.037Z,22.47
2018-04-07T18:17:31.788Z,24.20
2018-04-07T18:19:58.542Z,20.63
2018-04-07T18:22:25.285Z,21.53
2018-04-07T18:24:52.024Z,21.83
2018-04-07T18:27:18.775Z,19.97
2018-04-07T18:29:45.507Z,29.10
2018-04-07T18:32:12.251Z,19.70
2018-04-07T18:34:39.012Z,19.60
2018-04-07T18:37:05.828Z,20.57
2018-04-07T18:39:32.558Z,21.13
2018-04-07T18:41:59.300Z,22.03
2018-04-07T18:44:26.051Z,23.27
2018-04-07T18:46:52.802Z,20.40
2018-04-07T18:49:19.559Z,18.63
2018-04-07T18:51:46.300Z,20.93
2018-04-07T18:54:13.099Z,19.07
2018-04-07T18:56:39.853Z,19.80
2018-04-07T18:59:06.726Z,21.73
2018-04-07T19:01:33.518Z,19.87
2018-04-07T19:04:00.238Z,19.67
2018-04-07T19:06:26.960Z,22.70
2018-04-07T19:08:53.710Z,21.17
2018-04-07T19:11:20.449Z,18.33
2018-04-07T19:13:47.205Z,18.20
2018-04-07T19:16:13.921Z,17.33
2018-04-07T19:18:40.691Z,21.17
2018-04-07T19:21:07.530Z,18.40
2018-04-07T19:23:34.246Z,19.00
2018-04-07T19:26:00.977Z,17.40
2018-04-07T19:28:27.720Z,16.03
2018-04-07T19:30:54.482Z,15.43
2018-04-07T19:33:21.238Z,15.00
2018-04-07T19:35:47.998Z,16.50
2018-04-07T19:38:14.758Z,14.00
2018-04-07T19:40:41.526Z,15.53
2018-04-07T19:43:08.336Z,13.40
2018-04-07T19:45:35.108Z,14.47
2018-04-07T19:48:01.842Z,13.90
2018-04-07T19:50:28.565Z,14.97
2018-04-07T19:52:55.333Z,15.17
2018-04-07T19:55:22.059Z,17.30
2018-04-07T19:57:48.815Z,15.50
2018-04-07T20:00:15.574Z,15.97
2018-04-07T20:02:42.302Z,15.70
2018-04-07T20:05:09.758Z,15.27
2018-04-07T20:07:36.492Z,16.73
2018-04-07T20:10:03.271Z,18.70
2018-04-07T20:12:30.008Z,15.97
2018-04-07T20:15:07.024Z,16.30
2018-04-07T20:17:43.574Z,17.33
2018-04-07T20:20:22.104Z,15.83
2018-04-07T20:22:59.493Z,16.80
2018-04-07T20:25:36.436Z,20.97
2018-04-07T20:28:15.369Z,16.80
2018-04-07T20:30:53.930Z,16.03
2018-04-07T20:33:38.632Z,17.90
2018-04-07T20:36:21.220Z,17.80
2018-04-07T20:39:02.450Z,18.10
2018-04-07T20:41:40.480Z,16.33
2018-04-07T20:44:23.631Z,22.03
2018-04-07T20:47:03.356Z,17.37
2018-04-07T20:49:45.149Z,17.17
2018-04-07T20:52:24.138Z,18.60
2018-04-07T20:55:04.628Z,18.83
2018-04-07T20:57:43.074Z,17.67
2018-04-07T21:00:23.115Z,17.93
2018-04-07T21:03:02.804Z,19.77
2018-04-07T21:05:46.638Z,17.57
2018-04-07T21:08:29.700Z,17.30
2018-04-07T21:11:14.676Z,18.20
2018-04-07T21:13:53.001Z,17.17
2018-04-07T21:16:33.118Z,17.13
2018-04-07T21:19:13.146Z,18.50
2018-04-07T21:21:53.147Z,22.73
2018-04-07T21:24:37.157Z,18.10
2018-04-07T21:27:17.414Z,17.30
2018-04-07T21:29:55.864Z,18.17
2018-04-07T21:32:39.419Z,19.63
2018-04-07T21:35:20.234Z,20.83
2018-04-07T21:38:01.488Z,20.80
2018-04-07T21:40:41.461Z,17.70
2018-04-07T21:43:24.048Z,16.77
2018-04-07T21:46:07.340Z,17.20
2018-04-07T21:48:49.708Z,18.20
2018-04-07T21:51:30.397Z,17.40
2018-04-07T21:53:58.232Z,17.00
2018-04-07T21:56:24.959Z,22.83
2018-04-07T21:58:51.695Z,16.83
2018-04-07T22:01:27.308Z,18.97
2018-04-07T22:04:03.841Z,18.43
2018-04-07T22:06:33.042Z,21.00
2018-04-07T22:09:09.642Z,19.70
2018-04-07T22:11:54.659Z,19.13
2018-04-07T22:14:43.139Z,18.07
2018-04-07T22:17:25.836Z,18.97
2018-04-07T22:20:08.316Z,18.40
2018-04-07T22:22:55.655Z,17.67
2018-04-07T22:25:43.629Z,20.40
2018-04-07T22:28:25.167Z,19.83
2018-04-07T22:31:16.791Z,19.57
2018-04-07T22:33:58.043Z,20.73
2018-04-07T22:36:25.724Z,18.27
2018-04-07T22:38:52.513Z,17.87
2018-04-07T22:41:19.248Z,19.03
2018-04-07T22:43:46.001Z,18.70
2018-04-07T22:46:12.740Z,18.20
2018-04-07T22:48:39.516Z,18.97
2018-04-07T22:51:06.250Z,17.40
2018-04-07T22:53:33.007Z,20.20
2018-04-07T22:55:59.763Z,18.70
2018-04-07T22:58:26.491Z,19.13
2018-04-07T23:00:53.285Z,21.60
2018-04-07T23:03:20.030Z,21.70
2018-04-07T23:05:46.781Z,18.63
2018-04-07T23:08:13.591Z,19.10
2018-04-07T23:10:40.342Z,18.67
2018-04-07T23:13:07.267Z,22.43
2018-04-07T23:15:33.996Z,19.07
2018-04-07T23:18:00.751Z,19.70
2018-04-07T23:20:27.530Z,20.73
2018-04-07T23:22:54.265Z,21.53
2018-04-07T23:25:21.018Z,21.60
2018-04-07T23:27:47.748Z,21.17
2018-04-07T23:30:14.513Z,19.87
2018-04-07T23:32:41.314Z,24.10
2018-04-07T23:35:08.072Z,24.33
2018-04-07T23:37:34.824Z,23.20
2018-04-07T23:40:01.556Z,19.27
2018-04-07T23:42:28.288Z,20.70
2018-04-07T23:44:55.043Z,21.67
2018-04-07T23:47:21.820Z,23.30
2018-04-07T23:49:48.560Z,19.87
2018-04-07T23:52:15.485Z,20.63
2018-04-07T23:54:42.247Z,22.83
2018-04-07T23:57:09.019Z,22.20
2018-04-07T23:59:35.770Z,19.43
